createdAt,value
2018-05-23T00:00:23.463Z,69.30
2018-05-23T00:02:51.983Z,68.80
2018-05-23T00:05:20.321Z,69.60
2018-05-23T00:07:48.666Z,69.40
2018-05-23T00:10:17.800Z,68.90
2018-05-23T00:12:46.159Z,68.90
2018-05-23T00:15:14.843Z,69.30
2018-05-23T00:17:43.448Z,69.20
2018-05-23T00:20:11.823Z,69.00
2018-05-23T00:22:40.166Z,69.00
2018-05-23T00:25:09.265Z,69.10
2018-05-23T00:27:38.414Z,68.90
2018-05-23T00:30:06.740Z,69.70
2018-05-23T00:32:35.102Z,69.00
2018-05-23T00:35:03.532Z,68.90
2018-05-23T00:37:32.111Z,69.00
2018-05-23T00:40:00.454Z,68.90
2018-05-23T00:42:29.561Z,69.00
2018-05-23T00:44:58.704Z,69.20
2018-05-23T00:47:27.033Z,69.20
2018-05-23T00:49:55.500Z,69.50
2018-05-23T00:52:23.948Z,69.50
2018-05-23T00:55:04.222Z,69.60
2018-05-23T00:57:32.599Z,70.30
2018-05-23T01:00:00.939Z,69.70
2018-05-23T01:02:29.365Z,70.00
2018-05-23T01:04:57.754Z,70.20
2018-05-23T01:07:26.109Z,70.30
2018-05-23T01:09:54.635Z,70.20
2018-05-23T01:12:23.007Z,70.50
2018-05-23T01:14:51.498Z,70.90
2018-05-23T01:17:20.606Z,70.20
2018-05-23T01:19:48.960Z,70.30
2018-05-23T01:22:17.312Z,70.50
2018-05-23T01:24:45.664Z,70.70
2018-05-23T01:27:14.057Z,70.90
2018-05-23T01:29:42.514Z,70.80
2018-05-23T01:32:10.890Z,70.90
2018-05-23T01:34:39.332Z,71.50
2018-05-23T01:37:07.681Z,71.40
2018-05-23T01:39:36.028Z,71.40
2018-05-23T01:42:04.432Z,71.40
2018-05-23T01:44:32.767Z,71.60
2018-05-23T01:47:01.893Z,71.60
2018-05-23T01:49:30.240Z,71.60
2018-05-23T01:51:59.375Z,72.10
2018-05-23T01:54:27.718Z,72.10
2018-05-23T01:56:56.844Z,72.30
2018-05-23T01:59:25.186Z,72.30
2018-05-23T02:01:54.299Z,73.50
2018-05-23T02:04:22.694Z,72.70
2018-05-23T02:06:51.023Z,72.80
2018-05-23T02:09:19.451Z,73.00
2018-05-23T02:11:47.974Z,72.80
2018-05-23T02:14:16.390Z,72.80
2018-05-23T02:16:44.800Z,73.10
2018-05-23T02:19:13.281Z,73.20
2018-05-23T02:21:41.614Z,73.30
2018-05-23T02:24:09.979Z,73.50
2018-05-23T02:26:38.487Z,72.80
2018-05-23T02:29:06.892Z,73.70
2018-05-23T02:31:35.244Z,73.90
2018-05-23T02:34:04.341Z,73.30
2018-05-23T02:36:33.468Z,74.20
2018-05-23T02:39:01.847Z,74.20
2018-05-23T02:41:30.216Z,74.40
2018-05-23T02:43:58.566Z,74.70
2018-05-23T02:46:27.666Z,75.40
2018-05-23T02:48:56.252Z,74.60
2018-05-23T02:51:25.386Z,74.90
2018-05-23T02:53:53.802Z,74.90
2018-05-23T02:56:22.206Z,75.00
2018-05-23T02:58:51.337Z,74.70
2018-05-23T03:01:19.679Z,75.90
2018-05-23T03:03:48.956Z,74.70
2018-05-23T03:06:17.289Z,75.20
2018-05-23T03:08:45.650Z,75.50
2018-05-23T03:11:13.982Z,75.50
2018-05-23T03:13:42.358Z,75.40
2018-05-23T03:16:10.705Z,75.50
2018-05-23T03:18:39.100Z,75.60
2018-05-23T03:21:07.491Z,75.90
2018-05-23T03:23:35.806Z,76.00
2018-05-23T03:26:04.972Z,76.30
2018-05-23T03:28:33.397Z,76.30
2018-05-23T03:31:02.612Z,76.30
2018-05-23T03:33:31.705Z,76.20
2018-05-23T03:36:00.165Z,76.20
2018-05-23T03:38:28.590Z,76.10
2018-05-23T03:40:56.983Z,75.90
2018-05-23T03:43:25.570Z,76.10
2018-05-23T03:45:53.930Z,76.30
2018-05-23T03:48:22.323Z,76.20
2018-05-23T03:50:50.665Z,76.10
2018-05-23T03:53:19.777Z,76.40
2018-05-23T03:55:48.109Z,76.40
2018-05-23T03:58:16.454Z,76.60
2018-05-23T04:00:56.657Z,76.80
2018-05-23T04:03:36.958Z,77.10
2018-05-23T04:06:17.257Z,77.10
2018-05-23T04:08:45.609Z,77.20
2018-05-23T04:11:14.490Z,77.00
2018-05-23T04:13:42.841Z,77.30
2018-05-23T04:16:11.186Z,77.30
2018-05-23T04:18:39.560Z,77.40
2018-05-23T04:21:08.554Z,77.60
2018-05-23T04:23:36.911Z,77.70
2018-05-23T04:26:05.248Z,77.50
2018-05-23T04:28:34.372Z,78.00
2018-05-23T04:31:02.701Z,77.80
2018-05-23T04:33:31.118Z,78.00
2018-05-23T04:35:59.467Z,78.10
2018-05-23T04:38:27.821Z,78.10
2018-05-23T04:40:56.168Z,78.40
2018-05-23T04:43:24.584Z,78.50
2018-05-23T04:45:52.915Z,78.50
2018-05-23T04:48:21.254Z,78.40
2018-05-23T04:50:49.613Z,78.00
2018-05-23T04:53:17.942Z,78.30
2018-05-23T04:55:46.329Z,78.10
2018-05-23T04:58:14.665Z,78.30
2018-05-23T05:00:43.037Z,78.30
2018-05-23T05:03:11.501Z,78.40
2018-05-23T05:05:39.880Z,78.70
2018-05-23T05:08:08.205Z,78.70
2018-05-23T05:10:37.350Z,79.40
2018-05-23T05:13:05.671Z,79.40
2018-05-23T05:15:34.797Z,79.80
2018-05-23T05:18:03.126Z,78.80
2018-05-23T05:20:31.570Z,79.00
2018-05-23T05:22:59.943Z,79.30
2018-05-23T05:25:28.295Z,79.30
2018-05-23T05:27:56.852Z,79.50
2018-05-23T05:30:25.188Z,79.80
2018-05-23T05:32:53.542Z,79.90
2018-05-23T05:35:22.639Z,79.40
2018-05-23T05:37:50.996Z,79.30
2018-05-23T05:40:19.338Z,79.70
2018-05-23T05:42:47.683Z,80.00
2018-05-23T05:45:16.017Z,79.90
2018-05-23T05:47:44.351Z,79.40
2018-05-23T05:50:12.728Z,78.80
2018-05-23T05:52:41.059Z,78.80
2018-05-23T05:55:09.414Z,78.70
2018-05-23T05:57:37.755Z,78.70
2018-05-23T06:00:06.117Z,78.20
2018-05-23T06:02:34.474Z,77.70
2018-05-23T06:05:02.903Z,77.90
2018-05-23T06:07:31.239Z,78.20
2018-05-23T06:09:59.758Z,78.60
2018-05-23T06:12:28.036Z,78.80
2018-05-23T06:14:56.398Z,78.90
2018-05-23T06:17:25.710Z,78.90
2018-05-23T06:19:54.811Z,79.00
2018-05-23T06:22:23.260Z,79.00
2018-05-23T06:24:51.643Z,79.10
2018-05-23T06:27:20.783Z,78.50
2018-05-23T06:29:49.163Z,78.20
2018-05-23T06:32:17.544Z,78.40
2018-05-23T06:34:45.931Z,77.90
2018-05-23T06:37:14.270Z,77.70
2018-05-23T06:39:43.371Z,76.70
2018-05-23T06:42:11.726Z,76.60
2018-05-23T06:44:40.074Z,76.90
2018-05-23T06:47:08.639Z,77.40
2018-05-23T06:49:36.990Z,79.50
2018-05-23T06:52:05.347Z,78.80
2018-05-23T06:54:33.882Z,76.90
2018-05-23T06:57:02.218Z,76.40
2018-05-23T06:59:31.575Z,74.30
2018-05-23T07:01:59.942Z,74.30
2018-05-23T07:04:28.292Z,72.70
2018-05-23T07:06:56.631Z,71.80
2018-05-23T07:09:24.980Z,71.20
2018-05-23T07:11:53.343Z,72.10
2018-05-23T07:14:21.695Z,72.20
2018-05-23T07:16:50.156Z,73.90
2018-05-23T07:19:18.682Z,72.40
2018-05-23T07:21:47.073Z,71.50
2018-05-23T07:24:15.439Z,72.90
2018-05-23T07:26:43.826Z,73.00
2018-05-23T07:29:12.175Z,72.20
2018-05-23T07:31:41.305Z,72.30
2018-05-23T07:34:09.687Z,72.30
2018-05-23T07:36:38.033Z,71.50
2018-05-23T07:39:07.140Z,72.60
2018-05-23T07:41:35.507Z,72.40
2018-05-23T07:44:04.649Z,72.60
2018-05-23T07:46:33.018Z,72.60
2018-05-23T07:49:01.375Z,72.40
2018-05-23T07:51:29.800Z,73.00
2018-05-23T07:53:58.145Z,73.00
2018-05-23T07:56:26.488Z,73.50
2018-05-23T07:58:54.838Z,73.50
2018-05-23T08:01:23.169Z,73.40
2018-05-23T08:03:51.572Z,72.50
2018-05-23T08:06:19.911Z,70.50
2018-05-23T08:08:49.027Z,69.90
2018-05-23T08:11:17.374Z,69.50
2018-05-23T08:13:45.720Z,69.50
2018-05-23T08:16:14.082Z,70.40
2018-05-23T08:18:42.462Z,69.30
2018-05-23T08:21:10.790Z,68.20
2018-05-23T08:23:39.148Z,68.90
2018-05-23T08:26:07.510Z,70.00
2018-05-23T08:28:35.870Z,69.30
2018-05-23T08:31:04.263Z,68.00
2018-05-23T08:33:32.705Z,68.10
2018-05-23T08:36:00.978Z,68.20
2018-05-23T08:38:29.310Z,68.50
2018-05-23T08:40:57.670Z,69.10
2018-05-23T08:43:26.018Z,69.30
2018-05-23T08:45:55.147Z,69.20
2018-05-23T08:48:24.331Z,68.90
2018-05-23T08:50:52.710Z,68.90
2018-05-23T08:53:21.791Z,68.10
2018-05-23T08:55:50.159Z,68.00
2018-05-23T08:58:18.494Z,68.20
2018-05-23T09:00:46.837Z,67.50
2018-05-23T09:03:15.942Z,67.30
2018-05-23T09:05:44.282Z,67.10
2018-05-23T09:08:12.633Z,67.20
2018-05-23T09:10:41.047Z,67.60
2018-05-23T09:13:10.161Z,67.30
2018-05-23T09:15:38.643Z,67.30
2018-05-23T09:18:07.099Z,67.30
2018-05-23T09:20:35.438Z,68.40
2018-05-23T09:23:03.847Z,67.80
2018-05-23T09:25:32.247Z,68.50
2018-05-23T09:28:00.555Z,69.00
2018-05-23T09:30:28.915Z,66.90
2018-05-23T09:32:58.023Z,65.00
2018-05-23T09:35:26.409Z,65.00
2018-05-23T09:37:54.807Z,64.70
2018-05-23T09:40:23.331Z,64.60
2018-05-23T09:42:51.743Z,63.60
2018-05-23T09:45:20.137Z,64.00
2018-05-23T09:47:48.486Z,62.30
2018-05-23T09:50:17.603Z,61.50
2018-05-23T09:52:45.942Z,61.50
2018-05-23T09:55:14.370Z,61.00
2018-05-23T09:57:42.751Z,60.50
2018-05-23T10:00:11.107Z,60.00
2018-05-23T10:02:40.210Z,59.60
2018-05-23T10:05:08.663Z,59.60
2018-05-23T10:07:37.068Z,59.50
2018-05-23T10:10:06.234Z,57.60
2018-05-23T10:12:34.582Z,57.60
2018-05-23T10:15:02.941Z,56.70
2018-05-23T10:17:31.976Z,59.40
2018-05-23T10:20:00.500Z,59.90
2018-05-23T10:22:29.040Z,57.90
2018-05-23T10:24:57.400Z,58.50
2018-05-23T10:27:25.730Z,57.70
2018-05-23T10:29:54.853Z,56.80
2018-05-23T10:32:23.456Z,56.70
2018-05-23T10:34:51.778Z,57.40
2018-05-23T10:37:20.122Z,57.90
2018-05-23T10:39:48.580Z,57.00
2018-05-23T10:42:16.956Z,56.80
2018-05-23T10:44:45.312Z,57.40
2018-05-23T10:47:14.634Z,56.90
2018-05-23T10:49:43.120Z,56.90
2018-05-23T10:52:11.643Z,57.40
2018-05-23T10:54:39.853Z,57.10
2018-05-23T10:57:09.077Z,57.20
2018-05-23T10:59:37.306Z,57.20
2018-05-23T11:02:05.687Z,57.30
2018-05-23T11:04:34.029Z,56.10
2018-05-23T11:07:02.395Z,56.20
2018-05-23T11:09:30.745Z,55.70
2018-05-23T11:11:59.858Z,53.60
2018-05-23T11:14:28.252Z,53.60
2018-05-23T11:16:56.731Z,53.20
2018-05-23T11:19:25.077Z,53.60
2018-05-23T11:21:54.206Z,51.80
2018-05-23T11:24:22.772Z,51.80
2018-05-23T11:26:51.056Z,51.10
2018-05-23T11:29:19.427Z,48.80
2018-05-23T11:31:47.753Z,48.20
2018-05-23T11:34:16.202Z,48.70
2018-05-23T11:36:44.597Z,49.90
2018-05-23T11:39:12.925Z,49.90
2018-05-23T11:41:42.082Z,46.70
2018-05-23T11:44:10.486Z,46.60
2018-05-23T11:46:38.890Z,46.70
2018-05-23T11:49:07.214Z,47.70
2018-05-23T11:51:35.578Z,48.10
2018-05-23T11:54:03.965Z,48.90
2018-05-23T11:56:32.317Z,49.90
2018-05-23T11:59:00.686Z,48.30
2018-05-23T12:01:29.019Z,48.70
2018-05-23T12:03:57.365Z,48.90
2018-05-23T12:06:25.739Z,47.50
2018-05-23T12:08:54.236Z,48.70
2018-05-23T12:11:22.749Z,49.80
2018-05-23T12:13:51.116Z,48.10
2018-05-23T12:16:19.502Z,47.70
2018-05-23T12:18:48.057Z,48.30
2018-05-23T12:21:16.437Z,48.80
2018-05-23T12:23:44.772Z,47.70
2018-05-23T12:26:13.911Z,46.50
2018-05-23T12:28:42.291Z,46.20
2018-05-23T12:31:10.668Z,46.10
2018-05-23T12:33:39.164Z,45.80
2018-05-23T12:36:07.507Z,46.40
2018-05-23T12:38:35.855Z,45.80
2018-05-23T12:41:04.298Z,45.70
2018-05-23T12:43:32.692Z,46.60
2018-05-23T12:46:01.751Z,44.80
2018-05-23T12:48:30.139Z,44.80
2018-05-23T12:50:58.508Z,45.30
2018-05-23T12:53:26.922Z,44.80
2018-05-23T12:55:55.254Z,45.80
2018-05-23T12:58:23.618Z,45.90
2018-05-23T13:00:52.748Z,47.00
2018-05-23T13:03:21.151Z,46.60
2018-05-23T13:05:49.479Z,45.90
2018-05-23T13:08:17.863Z,45.80
2018-05-23T13:10:46.187Z,45.80
2018-05-23T13:13:14.554Z,45.50
2018-05-23T13:15:42.891Z,46.70
2018-05-23T13:18:12.004Z,45.50
2018-05-23T13:20:41.121Z,44.90
2018-05-23T13:23:09.474Z,44.90
2018-05-23T13:25:38.618Z,44.00
2018-05-23T13:28:06.971Z,44.00
2018-05-23T13:30:35.344Z,44.50
2018-05-23T13:33:03.678Z,44.80
2018-05-23T13:35:32.109Z,45.10
2018-05-23T13:38:01.251Z,44.40
2018-05-23T13:40:29.689Z,44.30
2018-05-23T13:42:58.024Z,42.50
2018-05-23T13:45:26.693Z,41.20
2018-05-23T13:47:55.054Z,41.80
2018-05-23T13:50:23.574Z,42.70
2018-05-23T13:52:52.036Z,42.40
2018-05-23T13:55:20.370Z,44.50
2018-05-23T13:57:48.717Z,43.60
2018-05-23T14:00:17.836Z,41.60
2018-05-23T14:02:46.204Z,41.60
2018-05-23T14:05:15.301Z,41.80
2018-05-23T14:07:44.419Z,40.80
2018-05-23T14:10:12.891Z,40.80
2018-05-23T14:12:41.357Z,41.30
2018-05-23T14:15:10.651Z,41.70
2018-05-23T14:17:39.806Z,40.20
2018-05-23T14:20:08.161Z,39.60
2018-05-23T14:22:36.754Z,39.90
2018-05-23T14:25:05.075Z,41.20
2018-05-23T14:27:33.526Z,40.10
2018-05-23T14:30:02.626Z,40.20
2018-05-23T14:32:30.983Z,41.70
2018-05-23T14:34:59.352Z,40.20
2018-05-23T14:37:27.686Z,39.70
2018-05-23T14:39:56.121Z,39.10
2018-05-23T14:42:24.568Z,39.40
2018-05-23T14:44:52.914Z,39.90
2018-05-23T14:47:21.369Z,39.80
2018-05-23T14:49:49.818Z,39.70
2018-05-23T14:52:18.938Z,39.40
2018-05-23T14:54:47.307Z,39.30
2018-05-23T14:57:16.680Z,40.00
2018-05-23T14:59:45.171Z,41.60
2018-05-23T15:02:13.492Z,40.10
2018-05-23T15:04:41.824Z,39.70
2018-05-23T15:07:11.875Z,40.10
2018-05-23T15:09:40.203Z,39.90
2018-05-23T15:12:08.643Z,39.10
2018-05-23T15:14:37.027Z,39.10
2018-05-23T15:17:05.412Z,40.60
2018-05-23T15:19:33.790Z,42.30
2018-05-23T15:22:02.309Z,41.60
2018-05-23T15:24:30.647Z,41.80
2018-05-23T15:26:59.130Z,43.00
2018-05-23T15:29:27.508Z,43.50
2018-05-23T15:31:55.870Z,42.70
2018-05-23T15:34:24.203Z,43.00
2018-05-23T15:36:52.557Z,43.10
2018-05-23T15:39:21.010Z,44.20
2018-05-23T15:41:49.542Z,44.90
2018-05-23T15:44:17.791Z,44.60
2018-05-23T15:46:46.151Z,43.90
2018-05-23T15:49:14.537Z,43.90
2018-05-23T15:51:42.859Z,44.10
2018-05-23T15:54:11.354Z,44.40
2018-05-23T15:56:39.724Z,44.50
2018-05-23T15:59:08.939Z,44.20
2018-05-23T16:01:38.069Z,44.80
2018-05-23T16:04:06.658Z,44.70
2018-05-23T16:06:35.030Z,44.70
2018-05-23T16:09:03.391Z,45.20
2018-05-23T16:11:31.742Z,46.00
2018-05-23T16:14:00.167Z,44.80
2018-05-23T16:16:28.564Z,45.00
2018-05-23T16:18:56.970Z,44.50
2018-05-23T16:21:25.411Z,44.30
2018-05-23T16:23:53.790Z,45.40
2018-05-23T16:26:22.169Z,44.60
2018-05-23T16:28:50.611Z,43.90
2018-05-23T16:31:19.763Z,42.90
2018-05-23T16:33:48.094Z,42.80
2018-05-23T16:36:17.323Z,41.90
2018-05-23T16:38:45.665Z,41.80
2018-05-23T16:41:14.893Z,41.10
2018-05-23T16:43:43.150Z,41.10
2018-05-23T16:46:12.258Z,40.30
2018-05-23T16:48:40.768Z,40.30
2018-05-23T16:51:09.138Z,39.70
2018-05-23T16:53:37.486Z,40.00
2018-05-23T16:56:06.771Z,37.20
2018-05-23T16:58:35.194Z,37.20
2018-05-23T17:01:03.575Z,35.90
2018-05-23T17:03:31.923Z,36.40
2018-05-23T17:06:00.337Z,36.00
2018-05-23T17:08:28.817Z,35.70
2018-05-23T17:10:57.197Z,34.80
2018-05-23T17:13:25.589Z,35.40
2018-05-23T17:15:54.104Z,35.80
2018-05-23T17:18:23.408Z,36.50
2018-05-23T17:20:51.804Z,37.40
2018-05-23T17:23:20.904Z,39.30
2018-05-23T17:25:50.049Z,41.10
2018-05-23T17:28:18.428Z,40.60
2018-05-23T17:30:46.798Z,41.60
2018-05-23T17:33:16.071Z,44.60
2018-05-23T17:35:45.473Z,43.90
2018-05-23T17:38:14.574Z,46.00
2018-05-23T17:40:42.974Z,45.90
2018-05-23T17:43:11.365Z,46.60
2018-05-23T17:45:40.350Z,47.00
2018-05-23T17:48:08.710Z,46.80
2018-05-23T17:50:37.040Z,47.20
2018-05-23T17:53:05.469Z,47.40
2018-05-23T17:55:33.866Z,47.00
2018-05-23T17:58:02.349Z,46.70
2018-05-23T18:00:30.702Z,45.90
2018-05-23T18:02:59.105Z,45.50
2018-05-23T18:05:27.458Z,44.40
2018-05-23T18:07:56.565Z,42.30
2018-05-23T18:10:24.968Z,42.30
2018-05-23T18:12:53.928Z,42.00
2018-05-23T18:15:23.162Z,41.50
2018-05-23T18:17:51.581Z,41.50
2018-05-23T18:20:19.914Z,41.30
2018-05-23T18:22:48.298Z,40.90
2018-05-23T18:25:16.668Z,40.60
2018-05-23T18:27:45.014Z,40.30
2018-05-23T18:30:14.249Z,41.50
2018-05-23T18:32:42.721Z,41.30
2018-05-23T18:35:11.331Z,42.40
2018-05-23T18:37:39.679Z,43.00
2018-05-23T18:40:08.065Z,43.30
2018-05-23T18:42:36.407Z,44.00
2018-05-23T18:45:05.618Z,45.30
2018-05-23T18:47:34.056Z,45.20
2018-05-23T18:50:02.442Z,46.10
2018-05-23T18:52:30.797Z,46.90
2018-05-23T18:54:59.145Z,47.80
2018-05-23T18:57:27.504Z,48.40
2018-05-23T18:59:56.687Z,48.90
2018-05-23T19:02:25.129Z,49.50
2018-05-23T19:04:53.521Z,49.90
2018-05-23T19:07:22.587Z,50.80
2018-05-23T19:09:51.061Z,50.80
2018-05-23T19:12:19.574Z,51.30
2018-05-23T19:14:48.159Z,51.70
2018-05-23T19:17:16.522Z,52.00
2018-05-23T19:19:44.895Z,52.20
2018-05-23T19:22:13.238Z,52.60
2018-05-23T19:24:42.044Z,53.10
2018-05-23T19:27:10.463Z,53.80
2018-05-23T19:29:38.821Z,53.20
2018-05-23T19:32:07.156Z,53.20
2018-05-23T19:34:35.806Z,53.90
2018-05-23T19:37:04.151Z,53.30
2018-05-23T19:39:32.579Z,55.60
2018-05-23T19:42:00.915Z,56.30
2018-05-23T19:44:29.279Z,55.10
2018-05-23T19:46:58.406Z,56.30
2018-05-23T19:49:27.560Z,56.20
2018-05-23T19:51:55.967Z,56.00
2018-05-23T19:54:24.385Z,55.30
2018-05-23T19:56:52.771Z,54.90
2018-05-23T19:59:21.161Z,55.00
2018-05-23T20:01:49.556Z,54.80
2018-05-23T20:04:17.902Z,54.80
2018-05-23T20:06:46.256Z,54.60
2018-05-23T20:09:14.596Z,54.20
2018-05-23T20:11:42.955Z,54.50
2018-05-23T20:14:11.386Z,54.60
2018-05-23T20:16:39.746Z,55.00
2018-05-23T20:19:08.093Z,55.20
2018-05-23T20:21:36.434Z,55.10
2018-05-23T20:24:04.793Z,55.10
2018-05-23T20:26:33.902Z,54.70
2018-05-23T20:29:02.313Z,54.70
2018-05-23T20:31:30.642Z,54.60
2018-05-23T20:33:59.765Z,54.60
2018-05-23T20:36:28.094Z,54.60
2018-05-23T20:38:56.457Z,54.90
2018-05-23T20:41:25.075Z,54.60
2018-05-23T20:43:53.403Z,54.60
2018-05-23T20:46:21.763Z,54.60
2018-05-23T20:48:50.134Z,54.90
2018-05-23T20:51:18.527Z,55.30
2018-05-23T20:53:46.998Z,55.70
2018-05-23T20:56:15.499Z,56.40
2018-05-23T20:58:44.032Z,55.30
2018-05-23T21:01:12.354Z,55.40
2018-05-23T21:03:40.723Z,55.60
2018-05-23T21:06:09.106Z,55.60
2018-05-23T21:08:37.494Z,55.70
2018-05-23T21:11:05.879Z,55.90
2018-05-23T21:13:34.241Z,56.00
2018-05-23T21:16:02.613Z,56.10
2018-05-23T21:18:30.998Z,56.40
2018-05-23T21:20:59.384Z,56.50
2018-05-23T21:23:27.771Z,56.60
2018-05-23T21:25:56.152Z,56.60
2018-05-23T21:28:24.510Z,56.60
2018-05-23T21:30:52.896Z,56.70
2018-05-23T21:33:21.267Z,56.80
2018-05-23T21:35:49.621Z,56.80
2018-05-23T21:38:18.047Z,56.90
2018-05-23T21:40:46.383Z,57.90
2018-05-23T21:43:15.503Z,57.60
2018-05-23T21:45:43.839Z,57.60
2018-05-23T21:48:12.200Z,57.60
2018-05-23T21:50:40.603Z,57.80
2018-05-23T21:53:08.951Z,57.80
2018-05-23T21:55:37.299Z,57.90
2018-05-23T21:58:05.805Z,58.00
2018-05-23T22:00:34.155Z,58.00
2018-05-23T22:03:02.509Z,58.10
2018-05-23T22:05:30.860Z,58.10
2018-05-23T22:07:59.328Z,58.20
2018-05-23T22:10:27.688Z,58.40
2018-05-23T22:12:56.076Z,58.40
2018-05-23T22:15:24.434Z,58.60
2018-05-23T22:17:52.778Z,58.80
2018-05-23T22:20:21.132Z,58.70
2018-05-23T22:22:49.485Z,58.70
2018-05-23T22:25:17.837Z,58.90
2018-05-23T22:27:46.962Z,59.10
2018-05-23T22:30:15.310Z,59.10
2018-05-23T22:32:43.707Z,59.10
2018-05-23T22:35:12.805Z,59.40
2018-05-23T22:37:41.162Z,59.40
2018-05-23T22:40:10.416Z,59.50
2018-05-23T22:42:38.806Z,59.50
2018-05-23T22:45:07.156Z,59.70
2018-05-23T22:47:35.609Z,59.90
2018-05-23T22:50:04.764Z,60.10
2018-05-23T22:52:33.392Z,60.10
2018-05-23T22:55:01.752Z,60.30
2018-05-23T22:57:30.136Z,60.60
2018-05-23T22:59:58.598Z,60.80
2018-05-23T23:02:26.935Z,61.00
2018-05-23T23:04:55.361Z,62.10
2018-05-23T23:07:23.750Z,61.40
2018-05-23T23:09:52.304Z,61.90
2018-05-23T23:12:20.677Z,62.00
2018-05-23T23:14:49.097Z,62.10
2018-05-23T23:17:17.457Z,62.40
2018-05-23T23:19:45.888Z,62.40
2018-05-23T23:22:26.037Z,62.60
2018-05-23T23:24:54.394Z,62.60
2018-05-23T23:27:23.841Z,62.90
2018-05-23T23:29:52.325Z,62.90
2018-05-23T23:32:20.832Z,63.20
2018-05-23T23:34:49.165Z,63.60
2018-05-23T23:37:17.508Z,63.60
2018-05-23T23:39:45.906Z,63.60
2018-05-23T23:42:14.309Z,63.80
2018-05-23T23:44:43.583Z,64.60
2018-05-23T23:47:11.884Z,64.60
2018-05-23T23:49:40.256Z,64.60
2018-05-23T23:52:08.719Z,64.70
2018-05-23T23:54:37.143Z,64.90
2018-05-23T23:57:05.518Z,65.10
2018-05-23T23:59:33.902Z,65.30
